createdAt,value
2018-08-06T00:02:20.187Z,21.00
2018-08-06T00:04:48.617Z,21.00
2018-08-06T00:07:17.048Z,20.90
2018-08-06T00:09:45.429Z,20.90
2018-08-06T00:14:42.048Z,20.90
2018-08-06T00:17:10.782Z,21.00
2018-08-06T00:19:39.190Z,20.90
2018-08-06T00:22:07.672Z,20.90
2018-08-06T00:24:36.024Z,20.90
2018-08-06T00:27:04.445Z,20.90
2018-08-06T00:29:33.131Z,20.80
2018-08-06T00:32:01.453Z,20.80
2018-08-06T00:34:29.911Z,20.80
2018-08-06T00:36:58.320Z,20.80
2018-08-06T00:39:26.803Z,20.80
2018-08-06T00:41:55.611Z,20.80
2018-08-06T00:49:20.772Z,20.70
2018-08-06T00:51:49.515Z,20.70
2018-08-06T00:56:45.955Z,20.70
2018-08-06T00:59:14.404Z,20.70
2018-08-06T01:01:42.789Z,20.60
2018-08-06T01:04:11.220Z,20.60
2018-08-06T01:06:39.773Z,20.60
2018-08-06T01:09:09.776Z,20.60
2018-08-06T01:11:38.541Z,20.60
2018-08-06T01:14:07.059Z,20.50
2018-08-06T01:16:35.696Z,20.50
2018-08-06T01:19:04.221Z,20.50
2018-08-06T01:21:32.859Z,20.40
2018-08-06T01:24:01.188Z,20.40
2018-08-06T01:26:29.623Z,20.40
2018-08-06T01:28:58.230Z,20.30
2018-08-06T01:31:26.791Z,20.30
2018-08-06T01:33:55.230Z,20.30
2018-08-06T01:38:51.795Z,20.30
2018-08-06T01:41:20.304Z,20.30
2018-08-06T01:43:48.818Z,20.20
2018-08-06T01:46:17.698Z,20.20
2018-08-06T01:51:14.581Z,20.10
2018-08-06T01:53:42.940Z,20.10
2018-08-06T01:56:11.628Z,20.10
2018-08-06T01:58:40.521Z,20.10
2018-08-06T02:01:09.080Z,20.10
2018-08-06T02:06:05.712Z,20.00
2018-08-06T02:08:34.195Z,20.00
2018-08-06T02:11:02.516Z,20.00
2018-08-06T02:13:30.957Z,20.00
2018-08-06T02:15:59.409Z,19.90
2018-08-06T02:18:28.027Z,19.90
2018-08-06T02:23:27.174Z,19.80
2018-08-06T02:25:56.024Z,19.80
2018-08-06T02:28:25.092Z,19.80
2018-08-06T02:30:55.212Z,19.80
2018-08-06T02:33:25.419Z,19.80
2018-08-06T02:35:55.425Z,19.70
2018-08-06T02:40:53.023Z,19.70
2018-08-06T02:43:21.577Z,19.60
2018-08-06T02:45:49.991Z,19.70
2018-08-06T02:48:18.482Z,19.70
2018-08-06T02:50:46.980Z,19.60
2018-08-06T02:53:15.396Z,19.60
2018-08-06T02:55:43.920Z,19.60
2018-08-06T02:58:12.338Z,19.60
2018-08-06T03:00:40.936Z,19.50
2018-08-06T03:03:09.506Z,19.50
2018-08-06T03:05:38.091Z,19.60
2018-08-06T03:08:06.493Z,19.50
2018-08-06T03:13:03.272Z,19.50
2018-08-06T03:15:31.751Z,19.40
2018-08-06T03:22:57.070Z,19.40
2018-08-06T03:25:25.862Z,19.40
2018-08-06T03:27:55.180Z,19.40
2018-08-06T03:30:24.244Z,19.30
2018-08-06T03:32:53.449Z,19.30
2018-08-06T03:35:21.894Z,19.30
2018-08-06T03:37:50.513Z,19.30
2018-08-06T03:40:25.239Z,19.30
2018-08-06T03:42:54.133Z,19.30
2018-08-06T03:45:22.955Z,19.20
2018-08-06T03:47:51.593Z,19.20
2018-08-06T03:50:20.184Z,19.20
2018-08-06T03:55:17.027Z,19.20
2018-08-06T03:57:46.026Z,19.20
2018-08-06T04:00:15.332Z,19.10
2018-08-06T04:02:44.534Z,19.10
2018-08-06T04:05:14.367Z,19.10
2018-08-06T04:07:43.208Z,19.10
2018-08-06T04:12:41.597Z,19.10
2018-08-06T04:15:10.846Z,19.10
2018-08-06T04:17:39.829Z,19.10
2018-08-06T04:20:09.819Z,19.10
2018-08-06T04:22:39.109Z,19.10
2018-08-06T04:25:07.955Z,19.00
2018-08-06T04:27:37.136Z,19.00
2018-08-06T04:32:35.816Z,19.00
2018-08-06T04:37:33.956Z,19.00
2018-08-06T04:40:02.779Z,19.00
2018-08-06T04:42:31.247Z,19.00
2018-08-06T04:47:28.617Z,19.10
2018-08-06T04:49:57.760Z,19.10
2018-08-06T04:52:26.481Z,19.00
2018-08-06T04:54:55.254Z,19.10
2018-08-06T04:57:25.060Z,19.00
2018-08-06T04:59:54.780Z,19.00
2018-08-06T05:02:24.197Z,19.10
2018-08-06T05:04:52.869Z,19.10
2018-08-06T05:07:23.494Z,19.10
2018-08-06T05:09:52.590Z,19.10
2018-08-06T05:12:20.963Z,19.10
2018-08-06T05:14:49.353Z,19.20
2018-08-06T05:20:03.453Z,19.20
2018-08-06T05:22:31.985Z,19.20
2018-08-06T05:25:00.523Z,19.20
2018-08-06T05:29:57.517Z,19.30
2018-08-06T05:34:54.477Z,19.30
2018-08-06T05:37:23.060Z,19.40
2018-08-06T05:39:52.138Z,19.40
2018-08-06T05:42:21.012Z,19.40
2018-08-06T05:44:50.935Z,19.40
2018-08-06T05:47:19.712Z,19.50
2018-08-06T05:49:48.845Z,19.50
2018-08-06T05:54:45.741Z,19.60
2018-08-06T05:57:14.394Z,19.60
2018-08-06T05:59:42.897Z,19.60
2018-08-06T06:02:12.741Z,19.70
2018-08-06T06:04:41.605Z,19.70
2018-08-06T06:07:10.128Z,19.80
2018-08-06T06:09:38.517Z,19.80
2018-08-06T06:12:06.880Z,19.80
2018-08-06T06:14:35.670Z,19.90
2018-08-06T06:17:04.168Z,19.90
2018-08-06T06:19:32.698Z,19.90
2018-08-06T06:22:01.291Z,20.00
2018-08-06T06:24:30.343Z,20.10
2018-08-06T06:26:59.296Z,20.20
2018-08-06T06:31:59.571Z,20.30
2018-08-06T06:34:29.260Z,20.30
2018-08-06T06:37:02.240Z,20.40
2018-08-06T06:39:32.325Z,20.40
2018-08-06T06:42:01.212Z,20.50
2018-08-06T06:44:30.191Z,20.60
2018-08-06T06:46:58.697Z,20.60
2018-08-06T06:49:27.040Z,20.70
2018-08-06T06:54:24.031Z,20.90
2018-08-06T06:56:52.334Z,20.90
2018-08-06T06:59:20.746Z,21.00
2018-08-06T07:01:49.224Z,21.10
2018-08-06T07:04:17.533Z,21.10
2018-08-06T07:06:45.871Z,21.20
2018-08-06T07:11:42.398Z,21.40
2018-08-06T07:14:11.049Z,21.40
2018-08-06T07:16:39.411Z,21.50
2018-08-06T07:19:07.757Z,21.50
2018-08-06T07:21:36.400Z,21.60
2018-08-06T07:26:32.817Z,21.80
2018-08-06T07:29:01.301Z,21.90
2018-08-06T07:31:30.429Z,22.00
2018-08-06T07:33:58.723Z,22.00
2018-08-06T07:36:27.001Z,22.10
2018-08-06T07:38:55.322Z,22.20
2018-08-06T07:41:23.733Z,22.30
2018-08-06T07:43:52.039Z,22.30
2018-08-06T07:46:20.435Z,22.40
2018-08-06T07:51:16.788Z,22.50
2018-08-06T07:53:45.093Z,22.60
2018-08-06T07:58:41.407Z,22.70
2018-08-06T08:01:09.684Z,22.80
2018-08-06T08:03:38.292Z,22.90
2018-08-06T08:06:06.648Z,23.00
2018-08-06T08:13:31.395Z,23.20
2018-08-06T08:15:59.703Z,23.30
2018-08-06T08:20:56.368Z,23.40
2018-08-06T08:25:52.762Z,23.60
2018-08-06T08:28:21.092Z,23.60
2018-08-06T08:30:49.605Z,23.70
2018-08-06T08:33:18.567Z,23.80
2018-08-06T08:35:46.966Z,23.90
2018-08-06T08:38:15.260Z,23.90
2018-08-06T08:40:43.614Z,24.00
2018-08-06T08:43:11.891Z,24.10
2018-08-06T08:50:36.284Z,24.40
2018-08-06T08:53:04.642Z,24.40
2018-08-06T08:58:00.917Z,24.50
2018-08-06T09:00:29.238Z,24.70
2018-08-06T09:02:57.532Z,24.70
2018-08-06T09:05:25.839Z,24.80
2018-08-06T09:07:54.155Z,24.80
2018-08-06T09:10:22.958Z,24.90
2018-08-06T09:15:21.693Z,25.10
2018-08-06T09:17:49.977Z,25.10
2018-08-06T09:20:18.290Z,25.20
2018-08-06T09:22:47.121Z,25.20
2018-08-06T09:25:15.715Z,25.30
2018-08-06T09:27:46.249Z,25.40
2018-08-06T09:30:19.110Z,25.50
2018-08-06T09:37:51.775Z,25.80
2018-08-06T09:40:21.141Z,25.80
2018-08-06T09:42:50.022Z,26.00
2018-08-06T09:45:19.528Z,26.10
2018-08-06T09:47:49.262Z,26.20
2018-08-06T09:50:18.357Z,26.30
2018-08-06T09:52:47.668Z,26.40
2018-08-06T09:55:18.936Z,26.40
2018-08-06T09:57:47.832Z,26.50
2018-08-06T10:00:28.460Z,26.60
2018-08-06T10:02:59.150Z,26.70
2018-08-06T10:05:28.073Z,26.80
2018-08-06T10:07:56.432Z,26.80
2018-08-06T10:10:25.408Z,26.90
2018-08-06T10:12:53.666Z,27.00
2018-08-06T10:15:22.444Z,27.00
2018-08-06T10:17:54.280Z,27.00
2018-08-06T10:20:24.142Z,27.10
2018-08-06T10:22:52.376Z,27.20
2018-08-06T10:25:20.680Z,27.30
2018-08-06T10:30:21.113Z,27.30
2018-08-06T10:32:49.293Z,27.40
2018-08-06T10:35:18.189Z,27.50
2018-08-06T10:37:46.493Z,27.60
2018-08-06T10:40:19.194Z,27.60
2018-08-06T10:42:47.787Z,27.80
2018-08-06T10:45:18.127Z,27.90
2018-08-06T10:47:46.639Z,28.00
2018-08-06T10:55:11.457Z,28.10
2018-08-06T10:57:41.269Z,28.30
2018-08-06T11:00:22.633Z,28.50
2018-08-06T11:07:47.692Z,28.90
2018-08-06T11:12:45.356Z,29.20
2018-08-06T11:15:17.099Z,29.40
2018-08-06T11:17:45.627Z,29.50
2018-08-06T11:20:15.017Z,29.60
2018-08-06T11:22:43.434Z,29.70
2018-08-06T11:25:13.179Z,29.80
2018-08-06T11:27:41.556Z,29.90
2018-08-06T11:30:12.088Z,29.90
2018-08-06T11:32:40.395Z,30.00
2018-08-06T11:35:09.841Z,30.00
2018-08-06T11:40:07.673Z,30.20
2018-08-06T11:42:36.686Z,30.30
2018-08-06T11:45:05.657Z,30.40
2018-08-06T11:47:33.959Z,30.50
2018-08-06T11:50:02.257Z,30.60
2018-08-06T11:52:30.507Z,30.60
2018-08-06T11:57:27.144Z,30.40
2018-08-06T11:59:55.508Z,30.10
2018-08-06T12:02:24.081Z,30.10
2018-08-06T12:07:20.556Z,30.20
2018-08-06T12:12:17.023Z,30.10
2018-08-06T12:17:13.748Z,30.20
2018-08-06T12:19:42.248Z,30.20
2018-08-06T12:22:10.537Z,30.30
2018-08-06T12:24:38.934Z,30.20
2018-08-06T12:27:07.289Z,30.30
2018-08-06T12:29:35.606Z,30.50
2018-08-06T12:32:03.938Z,30.60
2018-08-06T12:34:32.240Z,30.80
2018-08-06T12:37:00.520Z,30.80
2018-08-06T12:39:28.920Z,30.80
2018-08-06T12:44:25.531Z,30.90
2018-08-06T12:46:53.863Z,30.70
2018-08-06T12:51:50.364Z,30.50
2018-08-06T12:54:18.548Z,30.10
2018-08-06T12:59:14.885Z,30.30
2018-08-06T13:01:43.163Z,30.20
2018-08-06T13:04:11.450Z,30.30
2018-08-06T13:06:39.745Z,30.40
2018-08-06T13:09:09.222Z,30.60
2018-08-06T13:11:37.505Z,30.50
2018-08-06T13:14:06.332Z,30.50
2018-08-06T13:16:34.690Z,30.80
2018-08-06T13:19:02.972Z,30.80
2018-08-06T13:23:59.732Z,31.10
2018-08-06T13:26:28.077Z,31.20
2018-08-06T13:28:56.364Z,31.20
2018-08-06T13:31:25.127Z,30.90
2018-08-06T13:33:53.480Z,31.00
2018-08-06T13:36:21.783Z,31.10
2018-08-06T13:38:50.089Z,31.00
2018-08-06T13:41:18.387Z,31.40
2018-08-06T13:43:47.455Z,31.60
2018-08-06T13:46:15.758Z,31.50
2018-08-06T13:48:44.032Z,31.60
2018-08-06T13:51:12.311Z,31.80
2018-08-06T13:53:40.627Z,31.90
2018-08-06T13:56:08.938Z,32.10
2018-08-06T14:01:05.244Z,32.20
2018-08-06T14:03:33.583Z,32.20
2018-08-06T14:06:01.908Z,31.90
2018-08-06T14:08:30.218Z,31.80
2018-08-06T14:10:58.583Z,31.50
2018-08-06T14:13:26.891Z,31.40
2018-08-06T14:15:55.220Z,31.50
2018-08-06T14:18:23.527Z,31.30
2018-08-06T14:23:20.429Z,31.00
2018-08-06T14:25:48.943Z,30.90
2018-08-06T14:28:17.770Z,30.90
2018-08-06T14:30:46.055Z,31.00
2018-08-06T14:33:14.489Z,31.10
2018-08-06T14:35:42.801Z,31.10
2018-08-06T14:38:11.156Z,31.20
2018-08-06T14:40:39.914Z,31.20
2018-08-06T14:43:08.512Z,31.20
2018-08-06T14:45:36.795Z,31.10
2018-08-06T14:48:05.124Z,31.30
2018-08-06T14:50:33.488Z,31.40
2018-08-06T14:53:01.820Z,31.30
2018-08-06T14:55:30.416Z,31.30
2018-08-06T15:00:26.927Z,31.10
2018-08-06T15:02:55.236Z,30.90
2018-08-06T15:05:23.507Z,30.80
2018-08-06T15:07:51.792Z,30.80
2018-08-06T15:10:20.157Z,31.00
2018-08-06T15:12:48.448Z,31.00
2018-08-06T15:17:46.533Z,31.10
2018-08-06T15:20:16.016Z,31.10
2018-08-06T15:22:44.396Z,31.10
2018-08-06T15:25:18.786Z,31.00
2018-08-06T15:27:53.511Z,30.80
2018-08-06T15:30:21.860Z,30.80
2018-08-06T15:32:56.015Z,30.80
2018-08-06T15:35:26.481Z,30.80
2018-08-06T15:40:23.296Z,30.60
2018-08-06T15:42:51.592Z,30.50
2018-08-06T15:45:20.116Z,30.50
2018-08-06T15:47:48.743Z,30.50
2018-08-06T15:50:19.044Z,30.50
2018-08-06T15:52:47.456Z,30.50
2018-08-06T15:55:15.776Z,30.50
2018-08-06T16:00:14.340Z,30.40
2018-08-06T16:02:42.744Z,30.40
2018-08-06T16:05:11.421Z,30.40
2018-08-06T16:07:39.931Z,30.30
2018-08-06T16:10:09.723Z,30.20
2018-08-06T16:12:38.020Z,30.10
2018-08-06T16:15:08.200Z,30.10
2018-08-06T16:17:36.855Z,30.10
2018-08-06T16:20:07.125Z,30.00
2018-08-06T16:22:35.428Z,30.00
2018-08-06T16:25:03.887Z,29.80
2018-08-06T16:27:32.209Z,29.90
2018-08-06T16:30:00.629Z,29.80
2018-08-06T16:32:28.948Z,29.90
2018-08-06T16:34:57.288Z,29.80
2018-08-06T16:37:25.593Z,29.80
2018-08-06T16:42:22.252Z,29.80
2018-08-06T16:44:50.528Z,29.80
2018-08-06T16:47:18.809Z,29.70
2018-08-06T16:49:47.100Z,29.70
2018-08-06T16:52:15.462Z,29.60
2018-08-06T16:57:11.684Z,29.40
2018-08-06T17:02:08.100Z,29.30
2018-08-06T17:04:36.348Z,29.20
2018-08-06T17:09:32.851Z,29.00
2018-08-06T17:12:01.221Z,28.90
2018-08-06T17:16:57.527Z,28.80
2018-08-06T17:19:25.833Z,28.70
2018-08-06T17:21:54.121Z,28.70
2018-08-06T17:24:22.422Z,28.70
2018-08-06T17:26:50.709Z,28.80
2018-08-06T17:29:18.988Z,28.70
2018-08-06T17:31:47.263Z,28.60
2018-08-06T17:34:15.681Z,28.50
2018-08-06T17:36:44.016Z,28.40
2018-08-06T17:39:12.860Z,28.30
2018-08-06T17:41:41.552Z,28.30
2018-08-06T17:44:09.955Z,28.30
2018-08-06T17:46:38.275Z,28.20
2018-08-06T17:49:06.631Z,28.10
2018-08-06T17:51:34.915Z,28.10
2018-08-06T17:56:31.340Z,28.00
2018-08-06T17:58:59.629Z,27.90
2018-08-06T18:03:55.937Z,27.90
2018-08-06T18:06:24.295Z,27.80
2018-08-06T18:08:52.728Z,27.70
2018-08-06T18:11:21.000Z,27.60
2018-08-06T18:13:49.487Z,27.60
2018-08-06T18:16:17.781Z,27.50
2018-08-06T18:18:46.039Z,27.50
2018-08-06T18:21:14.432Z,27.50
2018-08-06T18:23:42.722Z,27.50
2018-08-06T18:28:38.996Z,27.20
2018-08-06T18:31:07.304Z,27.20
2018-08-06T18:33:35.666Z,27.00
2018-08-06T18:36:03.928Z,26.90
2018-08-06T18:38:32.399Z,27.00
2018-08-06T18:41:00.875Z,27.00
2018-08-06T18:43:29.180Z,26.90
2018-08-06T18:45:57.531Z,26.90
2018-08-06T18:48:25.826Z,26.80
2018-08-06T18:50:54.163Z,26.80
2018-08-06T18:53:22.461Z,26.80
2018-08-06T18:55:50.732Z,26.70
2018-08-06T18:58:19.203Z,26.70
2018-08-06T19:00:47.517Z,26.60
2018-08-06T19:03:17.190Z,26.50
2018-08-06T19:05:45.478Z,26.40
2018-08-06T19:08:13.748Z,26.40
2018-08-06T19:13:16.435Z,26.30
2018-08-06T19:15:44.772Z,26.20
2018-08-06T19:18:22.901Z,26.20
2018-08-06T19:20:51.494Z,26.10
2018-08-06T19:23:22.559Z,26.00
2018-08-06T19:25:51.648Z,26.00
2018-08-06T19:28:19.985Z,26.00
2018-08-06T19:30:54.076Z,26.00
2018-08-06T19:33:22.491Z,25.90
2018-08-06T19:35:51.489Z,25.80
2018-08-06T19:38:19.795Z,25.80
2018-08-06T19:45:45.980Z,25.90
2018-08-06T19:48:14.448Z,25.70
2018-08-06T19:50:44.069Z,25.60
2018-08-06T19:53:12.640Z,25.60
2018-08-06T19:55:46.404Z,25.50
2018-08-06T20:00:42.895Z,25.50
2018-08-06T20:08:07.740Z,25.40
2018-08-06T20:10:36.135Z,25.30
2018-08-06T20:15:32.722Z,25.30
2018-08-06T20:18:03.018Z,25.30
2018-08-06T20:20:31.377Z,25.20
2018-08-06T20:22:59.776Z,25.20
2018-08-06T20:25:28.433Z,25.10
2018-08-06T20:27:56.908Z,25.10
2018-08-06T20:30:25.269Z,25.10
2018-08-06T20:32:53.596Z,25.10
2018-08-06T20:35:22.011Z,25.00
2018-08-06T20:42:46.991Z,24.80
2018-08-06T20:45:18.684Z,24.80
2018-08-06T20:47:48.279Z,24.70
2018-08-06T20:50:20.428Z,24.70
2018-08-06T20:52:49.692Z,24.70
2018-08-06T20:55:18.062Z,24.60
2018-08-06T20:57:46.909Z,24.60
2018-08-06T21:00:17.831Z,24.50
2018-08-06T21:02:47.473Z,24.50
2018-08-06T21:05:20.955Z,24.40
2018-08-06T21:07:49.395Z,24.40
2018-08-06T21:10:18.265Z,24.40
2018-08-06T21:12:47.146Z,24.40
2018-08-06T21:15:15.901Z,24.30
2018-08-06T21:17:44.346Z,24.30
2018-08-06T21:20:16.440Z,24.30
2018-08-06T21:22:49.945Z,24.30
2018-08-06T21:25:37.105Z,24.20
2018-08-06T21:28:05.488Z,24.20
2018-08-06T21:30:33.800Z,24.10
2018-08-06T21:33:02.101Z,24.10
2018-08-06T21:35:30.458Z,24.10
2018-08-06T21:37:59.205Z,24.00
2018-08-06T21:42:55.892Z,24.00
2018-08-06T21:45:24.740Z,23.90
2018-08-06T21:47:53.112Z,23.90
2018-08-06T21:50:24.116Z,23.90
2018-08-06T21:55:26.523Z,23.80
2018-08-06T21:57:55.156Z,23.80
2018-08-06T22:03:01.713Z,23.70
2018-08-06T22:05:30.722Z,23.70
2018-08-06T22:08:00.493Z,23.70
2018-08-06T22:10:29.592Z,23.60
2018-08-06T22:15:27.224Z,23.60
2018-08-06T22:17:55.739Z,23.50
2018-08-06T22:20:28.052Z,23.50
2018-08-06T22:22:57.709Z,23.50
2018-08-06T22:25:27.902Z,23.50
2018-08-06T22:27:57.824Z,23.40
2018-08-06T22:30:30.344Z,23.40
2018-08-06T22:32:58.646Z,23.40
2018-08-06T22:35:27.846Z,23.30
2018-08-06T22:37:56.582Z,23.30
2018-08-06T22:40:25.233Z,23.30
2018-08-06T22:45:27.382Z,23.30
2018-08-06T22:47:59.192Z,23.20
2018-08-06T22:50:30.012Z,23.20
2018-08-06T22:53:01.265Z,23.20
2018-08-06T22:55:34.909Z,23.10
2018-08-06T22:58:06.949Z,23.10
2018-08-06T23:00:40.644Z,23.00
2018-08-06T23:03:09.784Z,23.00
2018-08-06T23:05:42.094Z,23.00
2018-08-06T23:08:11.039Z,23.00
2018-08-06T23:10:40.118Z,22.90
2018-08-06T23:13:08.762Z,22.90
2018-08-06T23:15:37.140Z,22.90
2018-08-06T23:18:11.398Z,22.90
2018-08-06T23:20:41.803Z,22.90
2018-08-06T23:23:10.236Z,22.80
2018-08-06T23:25:38.518Z,22.80
2018-08-06T23:28:06.938Z,22.80
2018-08-06T23:30:35.230Z,22.80
2018-08-06T23:33:03.693Z,22.70
2018-08-06T23:35:31.989Z,22.70
2018-08-06T23:38:00.308Z,22.70
2018-08-06T23:40:28.642Z,22.70
2018-08-06T23:42:57.068Z,22.60
2018-08-06T23:45:25.438Z,22.60
2018-08-06T23:47:53.759Z,22.60
2018-08-06T23:50:22.065Z,22.60
2018-08-06T23:52:50.404Z,22.60
2018-08-06T23:55:19.227Z,22.60
2018-08-06T23:57:47.947Z,22.60
